Estación Meteorológica Peña el Pijo (Robertgarden) [ 12/10/18 11:47:32 CET ]

Fecha Hora Presion(HPa) Temp (°C) Humedad % Rocio (°C) Viento ( m/s) Direccion Lluvia 1Hora(mm) Lluvia 24H(mm) LLuvia Total(mm)
2018-Oct-27 01:01:46 1003.100 9.1 87 7.0       1.03 85.98
2018-Oct-27 02:01:54 1002.500 8.4 87 6.4       1.03 85.98
2018-Oct-27 03:01:39 1002.000 8.4 88 6.5       1.03 85.98
2018-Oct-27 04:01:42 1001.000 8.6 89 6.9       1.03 85.98
2018-Oct-27 05:04:27 1000.500 9.1 89 7.4       1.03 85.98
2018-Oct-27 06:01:38 999.700 9.5 89 7.8       1.03 85.98
2018-Oct-27 07:01:50 999.400 10.4 89 8.6       1.03 85.98
2018-Oct-27 08:01:56 999.200 11.0 90 9.4       1.03 85.98
2018-Oct-27 09:01:34 999.000 10.8 89 9.0       1.03 85.98
2018-Oct-27 10:01:54 999.400 10.9 90 9.3     0.51 1.55 86.50
2018-Oct-27 11:01:41 999.000 11.1 88 9.2       1.55 86.50
2018-Oct-27 12:01:31 998.900 12.1 85 9.6       1.55 86.50
2018-Oct-27 13:01:51 998.100 13.3 75 8.9       1.55 86.50
2018-Oct-27 14:01:25 997.000 13.1 72 8.4       1.55 86.50
2018-Oct-27 15:01:51 995.600 12.9 72 8.0       1.55 86.50
2018-Oct-27 16:01:38 994.200 13.8 69 8.4       1.55 86.50
2018-Oct-27 17:01:19 993.200 15.3 62 8.1       1.03 86.50
2018-Oct-27 18:01:27 994.000 11.6 68 5.9 0.5 NNW   0.51 86.50
2018-Oct-27 19:01:41 992.800 8.3 79 4.9     1.03 1.55 87.54
2018-Oct-27 20:01:21 992.600 7.9 82 5.1     1.55 3.10 89.09
2018-Oct-27 21:01:35 991.800 7.2 84 4.7       3.10 89.09
2018-Oct-27 22:01:40 992.700 7.5 85 5.1     0.51 3.62 89.61
2018-Oct-27 23:01:10 992.300 6.4 85 3.9       3.62 89.61

Temperatura Máxima:15°    Temperatura Mínima:
Presión Máxima:1003.100 Hpa    Presión Mínima:991.800 Hpa


Volver